sensor_id;sensor_type;location;lat;lon;timestamp;P1;durP1;ratioP1;P2;durP2;ratioP2
2049;SDS011;8478;49.208;8.806;2023-04-07T00:00:18;8.30;;;7.70;;
2049;SDS011;8478;49.208;8.806;2023-04-07T00:02:43;9.13;;;7.80;;
2049;SDS011;8478;49.208;8.806;2023-04-07T00:05:09;8.63;;;7.80;;
2049;SDS011;8478;49.208;8.806;2023-04-07T00:07:35;8.53;;;7.73;;
2049;SDS011;8478;49.208;8.806;2023-04-07T00:10:00;8.20;;;7.63;;
2049;SDS011;8478;49.208;8.806;2023-04-07T00:12:26;7.60;;;6.87;;
2049;SDS011;8478;49.208;8.806;2023-04-07T00:14:52;8.10;;;7.50;;
2049;SDS011;8478;49.208;8.806;2023-04-07T00:17:17;8.60;;;7.90;;
2049;SDS011;8478;49.208;8.806;2023-04-07T00:19:43;8.90;;;8.20;;
2049;SDS011;8478;49.208;8.806;2023-04-07T00:22:08;8.17;;;7.50;;
2049;SDS011;8478;49.208;8.806;2023-04-07T00:24:34;7.90;;;7.40;;
2049;SDS011;8478;49.208;8.806;2023-04-07T00:27:00;7.87;;;7.27;;
2049;SDS011;8478;49.208;8.806;2023-04-07T00:29:26;7.50;;;6.90;;
2049;SDS011;8478;49.208;8.806;2023-04-07T00:31:52;7.40;;;6.80;;
2049;SDS011;8478;49.208;8.806;2023-04-07T00:34:17;8.30;;;7.60;;
2049;SDS011;8478;49.208;8.806;2023-04-07T00:36:43;8.20;;;7.40;;
2049;SDS011;8478;49.208;8.806;2023-04-07T00:39:10;8.20;;;7.60;;
2049;SDS011;8478;49.208;8.806;2023-04-07T00:41:36;7.83;;;7.23;;
2049;SDS011;8478;49.208;8.806;2023-04-07T00:44:01;8.50;;;7.90;;
2049;SDS011;8478;49.208;8.806;2023-04-07T00:46:27;7.63;;;7.13;;
2049;SDS011;8478;49.208;8.806;2023-04-07T00:48:53;7.63;;;7.13;;
2049;SDS011;8478;49.208;8.806;2023-04-07T00:51:21;8.20;;;7.53;;
2049;SDS011;8478;49.208;8.806;2023-04-07T00:53:48;8.67;;;7.97;;
2049;SDS011;8478;49.208;8.806;2023-04-07T00:56:13;7.33;;;6.83;;
2049;SDS011;8478;49.208;8.806;2023-04-07T00:58:39;8.73;;;8.00;;
2049;SDS011;8478;49.208;8.806;2023-04-07T01:01:10;8.87;;;8.27;;
2049;SDS011;8478;49.208;8.806;2023-04-07T01:06:23;8.17;;;7.57;;
2049;SDS011;8478;49.208;8.806;2023-04-07T01:09:04;8.67;;;8.00;;
2049;SDS011;8478;49.208;8.806;2023-04-07T01:14:44;8.13;;;7.50;;
2049;SDS011;8478;49.208;8.806;2023-04-07T01:17:14;8.10;;;7.37;;
2049;SDS011;8478;49.208;8.806;2023-04-07T01:22:32;8.13;;;7.53;;
2049;SDS011;8478;49.208;8.806;2023-04-07T01:30:32;8.50;;;7.80;;
2049;SDS011;8478;49.208;8.806;2023-04-07T01:33:02;8.60;;;7.90;;
2049;SDS011;8478;49.208;8.806;2023-04-07T01:35:31;8.63;;;7.93;;
2049;SDS011;8478;49.208;8.806;2023-04-07T01:37:59;8.63;;;7.73;;
2049;SDS011;8478;49.208;8.806;2023-04-07T01:40:26;8.60;;;7.90;;
2049;SDS011;8478;49.208;8.806;2023-04-07T01:42:54;10.53;;;9.67;;
2049;SDS011;8478;49.208;8.806;2023-04-07T01:45:21;9.40;;;8.60;;
2049;SDS011;8478;49.208;8.806;2023-04-07T01:47:48;10.00;;;8.47;;
2049;SDS011;8478;49.208;8.806;2023-04-07T01:50:15;9.00;;;8.30;;
2049;SDS011;8478;49.208;8.806;2023-04-07T01:52:41;9.43;;;8.63;;
2049;SDS011;8478;49.208;8.806;2023-04-07T01:55:07;8.97;;;8.37;;
2049;SDS011;8478;49.208;8.806;2023-04-07T01:57:34;9.77;;;8.80;;
2049;SDS011;8478;49.208;8.806;2023-04-07T02:00:00;9.07;;;8.27;;
2049;SDS011;8478;49.208;8.806;2023-04-07T02:02:26;9.07;;;8.27;;
2049;SDS011;8478;49.208;8.806;2023-04-07T02:04:59;8.40;;;7.60;;
2049;SDS011;8478;49.208;8.806;2023-04-07T02:07:46;8.03;;;7.43;;
2049;SDS011;8478;49.208;8.806;2023-04-07T02:10:16;9.47;;;8.57;;
2049;SDS011;8478;49.208;8.806;2023-04-07T02:12:44;8.80;;;8.10;;
2049;SDS011;8478;49.208;8.806;2023-04-07T02:15:11;8.60;;;7.90;;
2049;SDS011;8478;49.208;8.806;2023-04-07T02:17:38;9.20;;;8.30;;
2049;SDS011;8478;49.208;8.806;2023-04-07T02:20:06;8.70;;;8.10;;
2049;SDS011;8478;49.208;8.806;2023-04-07T02:22:34;8.83;;;8.03;;
2049;SDS011;8478;49.208;8.806;2023-04-07T02:25:01;9.83;;;9.10;;
2049;SDS011;8478;49.208;8.806;2023-04-07T02:27:27;10.30;;;9.43;;
2049;SDS011;8478;49.208;8.806;2023-04-07T02:29:53;9.70;;;8.70;;
2049;SDS011;8478;49.208;8.806;2023-04-07T02:32:18;9.10;;;8.40;;
2049;SDS011;8478;49.208;8.806;2023-04-07T02:34:44;9.17;;;8.33;;
2049;SDS011;8478;49.208;8.806;2023-04-07T02:37:10;8.70;;;8.00;;
2049;SDS011;8478;49.208;8.806;2023-04-07T02:39:35;9.30;;;8.60;;
2049;SDS011;8478;49.208;8.806;2023-04-07T02:42:01;9.40;;;8.60;;
2049;SDS011;8478;49.208;8.806;2023-04-07T02:44:27;8.77;;;8.07;;
2049;SDS011;8478;49.208;8.806;2023-04-07T02:46:52;9.70;;;8.90;;
2049;SDS011;8478;49.208;8.806;2023-04-07T02:49:18;9.53;;;8.63;;
2049;SDS011;8478;49.208;8.806;2023-04-07T02:51:43;8.97;;;8.27;;
2049;SDS011;8478;49.208;8.806;2023-04-07T02:54:11;8.90;;;8.20;;
2049;SDS011;8478;49.208;8.806;2023-04-07T02:56:36;9.67;;;8.67;;
2049;SDS011;8478;49.208;8.806;2023-04-07T02:59:02;8.87;;;8.23;;
2049;SDS011;8478;49.208;8.806;2023-04-07T03:01:27;10.07;;;9.17;;
2049;SDS011;8478;49.208;8.806;2023-04-07T03:03:53;8.93;;;8.23;;
2049;SDS011;8478;49.208;8.806;2023-04-07T03:06:19;9.87;;;9.07;;
2049;SDS011;8478;49.208;8.806;2023-04-07T03:08:44;9.57;;;8.77;;
2049;SDS011;8478;49.208;8.806;2023-04-07T03:11:10;8.83;;;8.13;;
2049;SDS011;8478;49.208;8.806;2023-04-07T03:13:36;9.23;;;8.57;;
2049;SDS011;8478;49.208;8.806;2023-04-07T03:16:01;9.33;;;8.53;;
2049;SDS011;8478;49.208;8.806;2023-04-07T03:18:27;9.33;;;8.50;;
2049;SDS011;8478;49.208;8.806;2023-04-07T03:20:53;8.50;;;7.87;;
2049;SDS011;8478;49.208;8.806;2023-04-07T03:23:20;8.63;;;7.93;;
2049;SDS011;8478;49.208;8.806;2023-04-07T03:25:47;9.03;;;8.23;;
2049;SDS011;8478;49.208;8.806;2023-04-07T03:28:13;9.93;;;9.07;;
2049;SDS011;8478;49.208;8.806;2023-04-07T03:30:39;9.37;;;8.67;;
2049;SDS011;8478;49.208;8.806;2023-04-07T03:33:05;9.67;;;8.83;;
2049;SDS011;8478;49.208;8.806;2023-04-07T03:35:31;8.97;;;8.20;;
2049;SDS011;8478;49.208;8.806;2023-04-07T03:37:56;8.50;;;7.80;;
2049;SDS011;8478;49.208;8.806;2023-04-07T03:40:22;8.53;;;7.90;;
2049;SDS011;8478;49.208;8.806;2023-04-07T03:42:47;9.90;;;9.13;;
2049;SDS011;8478;49.208;8.806;2023-04-07T03:45:13;8.97;;;8.27;;
2049;SDS011;8478;49.208;8.806;2023-04-07T03:47:40;7.57;;;6.97;;
2049;SDS011;8478;49.208;8.806;2023-04-07T03:50:06;8.97;;;8.27;;
2049;SDS011;8478;49.208;8.806;2023-04-07T03:52:32;8.20;;;7.50;;
2049;SDS011;8478;49.208;8.806;2023-04-07T03:54:58;8.50;;;7.80;;
2049;SDS011;8478;49.208;8.806;2023-04-07T03:57:23;8.80;;;8.10;;
2049;SDS011;8478;49.208;8.806;2023-04-07T03:59:49;8.20;;;7.50;;
2049;SDS011;8478;49.208;8.806;2023-04-07T04:02:15;8.70;;;8.00;;
2049;SDS011;8478;49.208;8.806;2023-04-07T04:04:41;9.57;;;8.77;;
2049;SDS011;8478;49.208;8.806;2023-04-07T04:07:07;8.50;;;7.80;;
2049;SDS011;8478;49.208;8.806;2023-04-07T04:09:33;8.87;;;8.10;;
2049;SDS011;8478;49.208;8.806;2023-04-07T04:11:58;8.10;;;7.60;;
2049;SDS011;8478;49.208;8.806;2023-04-07T04:14:25;8.87;;;8.17;;
2049;SDS011;8478;49.208;8.806;2023-04-07T04:16:50;9.63;;;8.73;;
2049;SDS011;8478;49.208;8.806;2023-04-07T04:19:16;9.23;;;8.43;;
2049;SDS011;8478;49.208;8.806;2023-04-07T04:21:42;8.90;;;8.13;;
2049;SDS011;8478;49.208;8.806;2023-04-07T04:24:07;8.50;;;7.80;;
2049;SDS011;8478;49.208;8.806;2023-04-07T04:26:33;8.30;;;7.80;;
2049;SDS011;8478;49.208;8.806;2023-04-07T04:28:59;9.03;;;8.33;;
2049;SDS011;8478;49.208;8.806;2023-04-07T04:31:26;8.80;;;8.10;;
2049;SDS011;8478;49.208;8.806;2023-04-07T04:33:52;8.43;;;7.83;;
2049;SDS011;8478;49.208;8.806;2023-04-07T04:36:18;9.40;;;8.63;;
2049;SDS011;8478;49.208;8.806;2023-04-07T04:38:43;9.23;;;8.50;;
2049;SDS011;8478;49.208;8.806;2023-04-07T04:41:09;9.00;;;8.30;;
2049;SDS011;8478;49.208;8.806;2023-04-07T04:43:35;9.60;;;8.80;;
2049;SDS011;8478;49.208;8.806;2023-04-07T04:46:00;9.77;;;8.97;;
2049;SDS011;8478;49.208;8.806;2023-04-07T04:48:26;9.10;;;8.30;;
2049;SDS011;8478;49.208;8.806;2023-04-07T04:50:52;10.17;;;9.37;;
2049;SDS011;8478;49.208;8.806;2023-04-07T04:53:17;9.47;;;8.77;;
2049;SDS011;8478;49.208;8.806;2023-04-07T04:55:43;9.50;;;8.73;;
2049;SDS011;8478;49.208;8.806;2023-04-07T04:58:12;10.07;;;9.20;;
2049;SDS011;8478;49.208;8.806;2023-04-07T05:00:37;9.37;;;8.67;;
2049;SDS011;8478;49.208;8.806;2023-04-07T05:03:03;9.13;;;8.43;;
2049;SDS011;8478;49.208;8.806;2023-04-07T05:05:29;9.73;;;8.93;;
2049;SDS011;8478;49.208;8.806;2023-04-07T05:07:54;11.60;;;10.70;;
2049;SDS011;8478;49.208;8.806;2023-04-07T05:10:20;10.87;;;9.80;;
2049;SDS011;8478;49.208;8.806;2023-04-07T05:12:46;10.17;;;9.23;;
2049;SDS011;8478;49.208;8.806;2023-04-07T05:15:11;10.00;;;9.20;;
2049;SDS011;8478;49.208;8.806;2023-04-07T05:17:39;9.70;;;8.90;;
2049;SDS011;8478;49.208;8.806;2023-04-07T05:20:04;10.63;;;9.73;;
2049;SDS011;8478;49.208;8.806;2023-04-07T05:22:33;10.73;;;9.83;;
2049;SDS011;8478;49.208;8.806;2023-04-07T05:24:58;9.77;;;9.03;;
2049;SDS011;8478;49.208;8.806;2023-04-07T05:27:24;11.10;;;10.20;;
2049;SDS011;8478;49.208;8.806;2023-04-07T05:29:50;11.00;;;10.00;;
2049;SDS011;8478;49.208;8.806;2023-04-07T05:32:17;11.83;;;10.93;;
2049;SDS011;8478;49.208;8.806;2023-04-07T05:34:43;10.70;;;9.80;;
2049;SDS011;8478;49.208;8.806;2023-04-07T05:37:09;10.70;;;9.80;;
2049;SDS011;8478;49.208;8.806;2023-04-07T05:39:35;10.50;;;9.70;;
2049;SDS011;8478;49.208;8.806;2023-04-07T05:42:00;11.20;;;10.20;;
2049;SDS011;8478;49.208;8.806;2023-04-07T05:44:26;11.60;;;10.40;;
2049;SDS011;8478;49.208;8.806;2023-04-07T05:46:52;11.73;;;10.70;;
2049;SDS011;8478;49.208;8.806;2023-04-07T05:49:18;10.73;;;9.90;;
2049;SDS011;8478;49.208;8.806;2023-04-07T05:51:43;11.23;;;10.33;;
2049;SDS011;8478;49.208;8.806;2023-04-07T05:54:09;10.80;;;10.00;;
2049;SDS011;8478;49.208;8.806;2023-04-07T05:56:35;10.10;;;9.27;;
2049;SDS011;8478;49.208;8.806;2023-04-07T05:59:01;9.90;;;9.17;;
2049;SDS011;8478;49.208;8.806;2023-04-07T06:01:28;10.67;;;9.77;;
2049;SDS011;8478;49.208;8.806;2023-04-07T06:03:54;12.00;;;11.10;;
2049;SDS011;8478;49.208;8.806;2023-04-07T06:06:19;10.60;;;9.80;;
2049;SDS011;8478;49.208;8.806;2023-04-07T06:08:45;9.80;;;9.10;;
2049;SDS011;8478;49.208;8.806;2023-04-07T06:11:11;9.80;;;9.00;;
2049;SDS011;8478;49.208;8.806;2023-04-07T06:13:37;10.13;;;9.33;;
2049;SDS011;8478;49.208;8.806;2023-04-07T06:16:03;10.20;;;9.30;;
2049;SDS011;8478;49.208;8.806;2023-04-07T06:18:30;10.10;;;9.30;;
2049;SDS011;8478;49.208;8.806;2023-04-07T06:20:56;10.27;;;9.43;;
2049;SDS011;8478;49.208;8.806;2023-04-07T06:23:21;9.40;;;8.60;;
2049;SDS011;8478;49.208;8.806;2023-04-07T06:25:47;10.70;;;9.80;;
2049;SDS011;8478;49.208;8.806;2023-04-07T06:28:17;10.87;;;10.07;;
2049;SDS011;8478;49.208;8.806;2023-04-07T06:30:43;10.33;;;9.60;;
2049;SDS011;8478;49.208;8.806;2023-04-07T06:33:09;10.57;;;9.67;;
2049;SDS011;8478;49.208;8.806;2023-04-07T06:35:34;10.47;;;9.57;;
2049;SDS011;8478;49.208;8.806;2023-04-07T06:38:00;9.80;;;9.07;;
2049;SDS011;8478;49.208;8.806;2023-04-07T06:40:26;10.27;;;9.47;;
2049;SDS011;8478;49.208;8.806;2023-04-07T06:42:52;10.20;;;9.43;;
2049;SDS011;8478;49.208;8.806;2023-04-07T06:45:18;10.10;;;9.27;;
2049;SDS011;8478;49.208;8.806;2023-04-07T06:47:44;10.77;;;9.87;;
2049;SDS011;8478;49.208;8.806;2023-04-07T06:50:10;9.70;;;9.00;;
2049;SDS011;8478;49.208;8.806;2023-04-07T06:52:35;10.07;;;9.37;;
2049;SDS011;8478;49.208;8.806;2023-04-07T06:55:01;11.30;;;10.20;;
2049;SDS011;8478;49.208;8.806;2023-04-07T06:57:27;10.27;;;9.43;;
2049;SDS011;8478;49.208;8.806;2023-04-07T06:59:53;10.70;;;9.70;;
2049;SDS011;8478;49.208;8.806;2023-04-07T07:02:18;9.93;;;9.23;;
2049;SDS011;8478;49.208;8.806;2023-04-07T07:04:44;9.40;;;8.60;;
2049;SDS011;8478;49.208;8.806;2023-04-07T07:07:10;10.23;;;9.33;;
2049;SDS011;8478;49.208;8.806;2023-04-07T07:09:36;11.13;;;10.13;;
2049;SDS011;8478;49.208;8.806;2023-04-07T07:12:02;9.17;;;8.43;;
2049;SDS011;8478;49.208;8.806;2023-04-07T07:14:27;9.90;;;9.20;;
2049;SDS011;8478;49.208;8.806;2023-04-07T07:16:53;9.13;;;8.43;;
2049;SDS011;8478;49.208;8.806;2023-04-07T07:19:18;10.30;;;9.40;;
2049;SDS011;8478;49.208;8.806;2023-04-07T07:21:44;8.33;;;7.73;;
2049;SDS011;8478;49.208;8.806;2023-04-07T07:24:10;8.63;;;8.00;;
2049;SDS011;8478;49.208;8.806;2023-04-07T07:26:35;9.17;;;8.37;;
2049;SDS011;8478;49.208;8.806;2023-04-07T07:29:01;9.53;;;8.70;;
2049;SDS011;8478;49.208;8.806;2023-04-07T07:31:27;9.33;;;8.57;;
2049;SDS011;8478;49.208;8.806;2023-04-07T07:33:52;8.20;;;7.60;;
2049;SDS011;8478;49.208;8.806;2023-04-07T07:36:18;8.63;;;8.00;;
2049;SDS011;8478;49.208;8.806;2023-04-07T07:38:44;8.10;;;7.37;;
2049;SDS011;8478;49.208;8.806;2023-04-07T07:41:10;7.87;;;7.30;;
2049;SDS011;8478;49.208;8.806;2023-04-07T07:43:35;7.27;;;6.77;;
2049;SDS011;8478;49.208;8.806;2023-04-07T07:46:01;8.10;;;7.50;;
2049;SDS011;8478;49.208;8.806;2023-04-07T07:48:27;7.00;;;6.50;;
2049;SDS011;8478;49.208;8.806;2023-04-07T07:50:53;7.33;;;6.80;;
2049;SDS011;8478;49.208;8.806;2023-04-07T07:53:20;8.20;;;7.50;;
2049;SDS011;8478;49.208;8.806;2023-04-07T07:55:47;7.80;;;7.20;;
2049;SDS011;8478;49.208;8.806;2023-04-07T07:58:13;7.50;;;6.90;;
2049;SDS011;8478;49.208;8.806;2023-04-07T08:00:39;7.67;;;7.07;;
2049;SDS011;8478;49.208;8.806;2023-04-07T08:03:05;8.23;;;7.50;;
2049;SDS011;8478;49.208;8.806;2023-04-07T08:05:31;7.87;;;7.27;;
2049;SDS011;8478;49.208;8.806;2023-04-07T08:07:56;7.67;;;7.07;;
2049;SDS011;8478;49.208;8.806;2023-04-07T08:10:22;6.60;;;6.07;;
2049;SDS011;8478;49.208;8.806;2023-04-07T08:12:49;7.10;;;6.60;;
2049;SDS011;8478;49.208;8.806;2023-04-07T08:15:15;7.20;;;6.60;;
2049;SDS011;8478;49.208;8.806;2023-04-07T08:17:41;6.93;;;6.27;;
2049;SDS011;8478;49.208;8.806;2023-04-07T08:20:07;7.30;;;6.80;;
2049;SDS011;8478;49.208;8.806;2023-04-07T08:22:35;7.27;;;6.60;;
2049;SDS011;8478;49.208;8.806;2023-04-07T08:25:01;7.17;;;6.77;;
2049;SDS011;8478;49.208;8.806;2023-04-07T08:27:27;7.57;;;6.90;;
2049;SDS011;8478;49.208;8.806;2023-04-07T08:29:59;6.30;;;5.70;;
2049;SDS011;8478;49.208;8.806;2023-04-07T08:32:35;6.50;;;6.00;;
2049;SDS011;8478;49.208;8.806;2023-04-07T08:35:02;6.47;;;6.07;;
2049;SDS011;8478;49.208;8.806;2023-04-07T08:37:28;6.97;;;6.47;;
2049;SDS011;8478;49.208;8.806;2023-04-07T08:39:54;6.53;;;6.03;;
2049;SDS011;8478;49.208;8.806;2023-04-07T08:42:20;6.00;;;5.60;;
2049;SDS011;8478;49.208;8.806;2023-04-07T08:44:49;6.50;;;6.00;;
2049;SDS011;8478;49.208;8.806;2023-04-07T08:47:16;6.30;;;5.73;;
2049;SDS011;8478;49.208;8.806;2023-04-07T08:49:43;6.10;;;5.50;;
2049;SDS011;8478;49.208;8.806;2023-04-07T08:52:11;6.60;;;5.90;;
2049;SDS011;8478;49.208;8.806;2023-04-07T08:54:38;6.37;;;5.97;;
2049;SDS011;8478;49.208;8.806;2023-04-07T08:57:04;8.03;;;5.57;;
2049;SDS011;8478;49.208;8.806;2023-04-07T08:59:30;6.40;;;5.90;;
2049;SDS011;8478;49.208;8.806;2023-04-07T09:01:57;6.13;;;5.73;;
2049;SDS011;8478;49.208;8.806;2023-04-07T09:04:24;6.03;;;5.63;;
2049;SDS011;8478;49.208;8.806;2023-04-07T09:06:51;6.43;;;5.77;;
2049;SDS011;8478;49.208;8.806;2023-04-07T09:09:17;5.67;;;5.23;;
2049;SDS011;8478;49.208;8.806;2023-04-07T09:11:43;5.90;;;5.50;;
2049;SDS011;8478;49.208;8.806;2023-04-07T09:14:09;5.53;;;5.13;;
2049;SDS011;8478;49.208;8.806;2023-04-07T09:16:35;6.00;;;5.60;;
2049;SDS011;8478;49.208;8.806;2023-04-07T09:19:01;6.70;;;5.20;;
2049;SDS011;8478;49.208;8.806;2023-04-07T09:21:32;5.20;;;4.90;;
2049;SDS011;8478;49.208;8.806;2023-04-07T09:24:22;5.23;;;4.83;;
2049;SDS011;8478;49.208;8.806;2023-04-07T09:26:49;4.63;;;4.33;;
2049;SDS011;8478;49.208;8.806;2023-04-07T09:29:19;5.13;;;4.77;;
2049;SDS011;8478;49.208;8.806;2023-04-07T09:31:48;5.30;;;4.90;;
2049;SDS011;8478;49.208;8.806;2023-04-07T09:34:32;6.00;;;5.47;;
2049;SDS011;8478;49.208;8.806;2023-04-07T09:37:02;6.27;;;5.77;;
2049;SDS011;8478;49.208;8.806;2023-04-07T09:39:30;5.93;;;5.43;;
2049;SDS011;8478;49.208;8.806;2023-04-07T09:41:56;5.50;;;5.10;;
2049;SDS011;8478;49.208;8.806;2023-04-07T09:44:22;5.87;;;5.47;;
2049;SDS011;8478;49.208;8.806;2023-04-07T09:49:20;5.60;;;5.20;;
2049;SDS011;8478;49.208;8.806;2023-04-07T09:51:57;6.43;;;5.90;;
2049;SDS011;8478;49.208;8.806;2023-04-07T09:54:37;5.40;;;5.00;;
2049;SDS011;8478;49.208;8.806;2023-04-07T09:57:07;5.17;;;4.77;;
2049;SDS011;8478;49.208;8.806;2023-04-07T09:59:34;4.90;;;4.60;;
2049;SDS011;8478;49.208;8.806;2023-04-07T10:02:02;5.83;;;5.43;;
2049;SDS011;8478;49.208;8.806;2023-04-07T10:04:28;6.17;;;4.73;;
2049;SDS011;8478;49.208;8.806;2023-04-07T10:06:55;5.40;;;4.77;;
2049;SDS011;8478;49.208;8.806;2023-04-07T10:09:22;5.97;;;5.37;;
2049;SDS011;8478;49.208;8.806;2023-04-07T10:11:50;4.87;;;4.47;;
2049;SDS011;8478;49.208;8.806;2023-04-07T10:14:17;5.83;;;5.27;;
2049;SDS011;8478;49.208;8.806;2023-04-07T10:16:47;5.00;;;4.70;;
2049;SDS011;8478;49.208;8.806;2023-04-07T10:19:14;6.20;;;5.70;;
2049;SDS011;8478;49.208;8.806;2023-04-07T10:21:41;6.00;;;5.40;;
2049;SDS011;8478;49.208;8.806;2023-04-07T10:24:18;7.37;;;6.60;;
2049;SDS011;8478;49.208;8.806;2023-04-07T10:27:03;6.60;;;6.10;;
2049;SDS011;8478;49.208;8.806;2023-04-07T10:29:36;7.13;;;6.63;;
2049;SDS011;8478;49.208;8.806;2023-04-07T10:32:07;5.60;;;5.30;;
2049;SDS011;8478;49.208;8.806;2023-04-07T10:37:29;6.23;;;5.83;;
2049;SDS011;8478;49.208;8.806;2023-04-07T10:45:08;6.63;;;5.70;;
2049;SDS011;8478;49.208;8.806;2023-04-07T10:47:35;6.97;;;5.60;;
2049;SDS011;8478;49.208;8.806;2023-04-07T10:50:23;6.33;;;5.40;;
2049;SDS011;8478;49.208;8.806;2023-04-07T10:53:08;5.57;;;5.20;;
2049;SDS011;8478;49.208;8.806;2023-04-07T10:55:45;4.90;;;4.50;;
2049;SDS011;8478;49.208;8.806;2023-04-07T11:01:15;5.00;;;4.60;;
2049;SDS011;8478;49.208;8.806;2023-04-07T11:03:40;6.13;;;4.87;;
2049;SDS011;8478;49.208;8.806;2023-04-07T11:06:15;5.37;;;5.07;;
2049;SDS011;8478;49.208;8.806;2023-04-07T11:08:45;5.70;;;5.30;;
2049;SDS011;8478;49.208;8.806;2023-04-07T11:11:13;5.33;;;4.93;;
2049;SDS011;8478;49.208;8.806;2023-04-07T11:13:43;4.90;;;4.50;;
2049;SDS011;8478;49.208;8.806;2023-04-07T11:16:11;4.83;;;4.53;;
2049;SDS011;8478;49.208;8.806;2023-04-07T11:18:38;5.17;;;4.73;;
2049;SDS011;8478;49.208;8.806;2023-04-07T11:21:05;5.00;;;4.70;;
2049;SDS011;8478;49.208;8.806;2023-04-07T11:23:39;5.23;;;4.83;;
2049;SDS011;8478;49.208;8.806;2023-04-07T11:26:10;4.97;;;4.67;;
2049;SDS011;8478;49.208;8.806;2023-04-07T11:28:44;5.63;;;5.13;;
2049;SDS011;8478;49.208;8.806;2023-04-07T11:31:23;6.80;;;4.80;;
2049;SDS011;8478;49.208;8.806;2023-04-07T11:33:57;4.57;;;4.27;;
2049;SDS011;8478;49.208;8.806;2023-04-07T11:38:55;5.53;;;5.07;;
2049;SDS011;8478;49.208;8.806;2023-04-07T11:41:21;5.60;;;5.20;;
2049;SDS011;8478;49.208;8.806;2023-04-07T11:44:01;5.20;;;4.80;;
2049;SDS011;8478;49.208;8.806;2023-04-07T11:46:31;5.20;;;4.80;;
2049;SDS011;8478;49.208;8.806;2023-04-07T11:49:07;5.20;;;4.80;;
2049;SDS011;8478;49.208;8.806;2023-04-07T11:51:34;4.63;;;4.33;;
2049;SDS011;8478;49.208;8.806;2023-04-07T11:54:00;5.43;;;4.93;;
2049;SDS011;8478;49.208;8.806;2023-04-07T11:56:26;5.30;;;4.80;;
2049;SDS011;8478;49.208;8.806;2023-04-07T11:58:53;4.63;;;4.33;;
2049;SDS011;8478;49.208;8.806;2023-04-07T12:01:19;5.13;;;4.83;;
2049;SDS011;8478;49.208;8.806;2023-04-07T12:06:26;5.30;;;4.90;;
2049;SDS011;8478;49.208;8.806;2023-04-07T12:08:58;6.10;;;5.50;;
2049;SDS011;8478;49.208;8.806;2023-04-07T12:11:25;5.70;;;5.20;;
2049;SDS011;8478;49.208;8.806;2023-04-07T12:13:52;5.40;;;5.03;;
2049;SDS011;8478;49.208;8.806;2023-04-07T12:16:19;5.63;;;5.10;;
2049;SDS011;8478;49.208;8.806;2023-04-07T12:18:45;5.47;;;5.07;;
2049;SDS011;8478;49.208;8.806;2023-04-07T12:21:11;6.07;;;5.47;;
2049;SDS011;8478;49.208;8.806;2023-04-07T12:23:37;5.20;;;4.80;;
2049;SDS011;8478;49.208;8.806;2023-04-07T12:26:02;5.70;;;5.30;;
2049;SDS011;8478;49.208;8.806;2023-04-07T12:28:28;5.37;;;5.00;;
2049;SDS011;8478;49.208;8.806;2023-04-07T12:30:54;5.60;;;5.17;;
2049;SDS011;8478;49.208;8.806;2023-04-07T12:33:20;6.20;;;4.93;;
2049;SDS011;8478;49.208;8.806;2023-04-07T12:35:46;4.37;;;4.07;;
2049;SDS011;8478;49.208;8.806;2023-04-07T12:38:12;5.83;;;5.43;;
2049;SDS011;8478;49.208;8.806;2023-04-07T12:40:37;5.10;;;4.80;;
2049;SDS011;8478;49.208;8.806;2023-04-07T12:43:04;5.27;;;4.87;;
2049;SDS011;8478;49.208;8.806;2023-04-07T12:45:30;4.37;;;4.07;;
2049;SDS011;8478;49.208;8.806;2023-04-07T12:47:56;4.30;;;4.00;;
2049;SDS011;8478;49.208;8.806;2023-04-07T12:50:22;4.33;;;4.03;;
2049;SDS011;8478;49.208;8.806;2023-04-07T12:52:49;4.67;;;4.27;;
2049;SDS011;8478;49.208;8.806;2023-04-07T12:55:16;4.63;;;4.30;;
2049;SDS011;8478;49.208;8.806;2023-04-07T12:57:42;4.30;;;4.10;;
2049;SDS011;8478;49.208;8.806;2023-04-07T13:00:08;4.60;;;4.20;;
2049;SDS011;8478;49.208;8.806;2023-04-07T13:02:34;4.10;;;3.70;;
2049;SDS011;8478;49.208;8.806;2023-04-07T13:05:02;4.33;;;4.03;;
2049;SDS011;8478;49.208;8.806;2023-04-07T13:07:28;4.20;;;3.90;;
2049;SDS011;8478;49.208;8.806;2023-04-07T13:09:54;4.27;;;3.93;;
2049;SDS011;8478;49.208;8.806;2023-04-07T13:12:21;4.30;;;3.90;;
2049;SDS011;8478;49.208;8.806;2023-04-07T13:14:47;4.20;;;3.80;;
2049;SDS011;8478;49.208;8.806;2023-04-07T13:17:13;4.73;;;3.83;;
2049;SDS011;8478;49.208;8.806;2023-04-07T13:19:39;4.30;;;4.00;;
2049;SDS011;8478;49.208;8.806;2023-04-07T13:22:05;4.37;;;3.97;;
2049;SDS011;8478;49.208;8.806;2023-04-07T13:24:30;4.17;;;3.97;;
2049;SDS011;8478;49.208;8.806;2023-04-07T13:26:56;5.07;;;4.67;;
2049;SDS011;8478;49.208;8.806;2023-04-07T13:29:22;4.37;;;4.07;;
2049;SDS011;8478;49.208;8.806;2023-04-07T13:31:48;3.93;;;3.63;;
2049;SDS011;8478;49.208;8.806;2023-04-07T13:34:14;4.53;;;4.23;;
2049;SDS011;8478;49.208;8.806;2023-04-07T13:36:40;3.60;;;3.40;;
2049;SDS011;8478;49.208;8.806;2023-04-07T13:39:06;3.93;;;3.73;;
2049;SDS011;8478;49.208;8.806;2023-04-07T13:41:32;4.80;;;3.73;;
2049;SDS011;8478;49.208;8.806;2023-04-07T13:43:58;3.73;;;3.43;;
2049;SDS011;8478;49.208;8.806;2023-04-07T13:46:25;3.63;;;3.43;;
2049;SDS011;8478;49.208;8.806;2023-04-07T13:48:51;4.03;;;3.80;;
2049;SDS011;8478;49.208;8.806;2023-04-07T13:51:17;5.90;;;3.77;;
2049;SDS011;8478;49.208;8.806;2023-04-07T13:53:43;3.60;;;3.40;;
2049;SDS011;8478;49.208;8.806;2023-04-07T13:56:09;3.20;;;3.00;;
2049;SDS011;8478;49.208;8.806;2023-04-07T13:58:35;3.90;;;3.60;;
2049;SDS011;8478;49.208;8.806;2023-04-07T14:01:01;3.67;;;3.47;;
2049;SDS011;8478;49.208;8.806;2023-04-07T14:03:27;3.73;;;3.43;;
2049;SDS011;8478;49.208;8.806;2023-04-07T14:05:54;3.40;;;3.20;;
2049;SDS011;8478;49.208;8.806;2023-04-07T14:08:24;4.23;;;3.40;;
2049;SDS011;8478;49.208;8.806;2023-04-07T14:10:50;3.60;;;3.30;;
2049;SDS011;8478;49.208;8.806;2023-04-07T14:13:16;3.10;;;2.90;;
2049;SDS011;8478;49.208;8.806;2023-04-07T14:15:42;4.80;;;3.43;;
2049;SDS011;8478;49.208;8.806;2023-04-07T14:18:07;3.53;;;3.33;;
2049;SDS011;8478;49.208;8.806;2023-04-07T14:20:33;3.50;;;3.30;;
2049;SDS011;8478;49.208;8.806;2023-04-07T14:22:59;3.47;;;3.27;;
2049;SDS011;8478;49.208;8.806;2023-04-07T14:25:25;5.07;;;3.67;;
2049;SDS011;8478;49.208;8.806;2023-04-07T14:27:51;3.87;;;3.57;;
2049;SDS011;8478;49.208;8.806;2023-04-07T14:30:17;3.63;;;3.30;;
2049;SDS011;8478;49.208;8.806;2023-04-07T14:32:42;4.50;;;3.60;;
2049;SDS011;8478;49.208;8.806;2023-04-07T14:35:08;4.30;;;3.93;;
2049;SDS011;8478;49.208;8.806;2023-04-07T14:37:34;3.60;;;3.40;;
2049;SDS011;8478;49.208;8.806;2023-04-07T14:40:01;4.33;;;4.03;;
2049;SDS011;8478;49.208;8.806;2023-04-07T14:42:29;3.90;;;3.60;;
2049;SDS011;8478;49.208;8.806;2023-04-07T14:44:58;3.93;;;3.73;;
2049;SDS011;8478;49.208;8.806;2023-04-07T14:47:25;4.30;;;3.60;;
2049;SDS011;8478;49.208;8.806;2023-04-07T14:49:51;4.10;;;3.80;;
2049;SDS011;8478;49.208;8.806;2023-04-07T14:52:18;4.20;;;3.80;;
2049;SDS011;8478;49.208;8.806;2023-04-07T14:54:44;4.03;;;3.70;;
2049;SDS011;8478;49.208;8.806;2023-04-07T14:57:10;4.20;;;3.90;;
2049;SDS011;8478;49.208;8.806;2023-04-07T14:59:36;4.20;;;3.90;;
2049;SDS011;8478;49.208;8.806;2023-04-07T15:02:01;4.87;;;4.57;;
2049;SDS011;8478;49.208;8.806;2023-04-07T15:04:27;4.87;;;4.47;;
2049;SDS011;8478;49.208;8.806;2023-04-07T15:06:53;4.63;;;4.33;;
2049;SDS011;8478;49.208;8.806;2023-04-07T15:09:18;4.87;;;4.57;;
2049;SDS011;8478;49.208;8.806;2023-04-07T15:11:44;5.33;;;4.90;;
2049;SDS011;8478;49.208;8.806;2023-04-07T15:14:10;5.00;;;4.60;;
2049;SDS011;8478;49.208;8.806;2023-04-07T15:16:36;4.57;;;4.23;;
2049;SDS011;8478;49.208;8.806;2023-04-07T15:19:02;4.87;;;4.57;;
2049;SDS011;8478;49.208;8.806;2023-04-07T15:21:27;5.30;;;4.90;;
2049;SDS011;8478;49.208;8.806;2023-04-07T15:23:53;4.97;;;4.53;;
2049;SDS011;8478;49.208;8.806;2023-04-07T15:26:19;4.97;;;4.67;;
2049;SDS011;8478;49.208;8.806;2023-04-07T15:28:45;4.50;;;4.20;;
2049;SDS011;8478;49.208;8.806;2023-04-07T15:31:11;4.87;;;4.57;;
2049;SDS011;8478;49.208;8.806;2023-04-07T15:33:37;4.87;;;4.50;;
2049;SDS011;8478;49.208;8.806;2023-04-07T15:36:04;4.73;;;4.33;;
2049;SDS011;8478;49.208;8.806;2023-04-07T15:38:31;5.27;;;4.87;;
2049;SDS011;8478;49.208;8.806;2023-04-07T15:40:56;5.20;;;4.80;;
2049;SDS011;8478;49.208;8.806;2023-04-07T15:43:22;4.93;;;4.50;;